Time;durP1;ratioP1;P1;durP2;ratioP2;P2;SDS_P1;SDS_P2;PMS_P1;PMS_P2;Temp;Humidity;BMP_temperature;BMP_pressure;BME280_temperature;BME280_humidity;BME280_pressure;Samples;Min_cycle;Max_cycle;Signal;HPM_P1;HPM_P2
2022/05/14 00:01:01;;;;;;;4.95;2.50;;;13.00;80.10;;;;;;4955991;28;20071;-71
2022/05/14 00:03:29;;;;;;;3.58;2.28;;;13.00;80.30;;;;;;4952425;28;20046;-71
2022/05/14 00:05:57;;;;;;;6.88;2.60;;;12.90;80.40;;;;;;4952031;28;20031;-71
2022/05/14 00:08:25;;;;;;;3.15;2.40;;;13.00;80.50;;;;;;4955389;28;20602;-71
2022/05/14 00:13:36;;;;;;;4.50;3.08;;;12.90;80.80;;;;;;4951144;28;20027;-71
2022/05/14 00:16:03;;;;;;;4.55;2.42;;;12.90;81.00;;;;;;4951160;28;20103;-71
2022/05/14 00:18:30;;;;;;;3.08;2.78;;;12.90;81.10;;;;;;4955133;28;20037;-71
2022/05/14 00:20:55;;;;;;;4.32;2.85;;;12.80;81.20;;;;;;4940684;28;20510;-71
2022/05/14 00:23:21;;;;;;;5.88;2.53;;;12.80;81.50;;;;;;4945630;28;20035;-71
2022/05/14 00:25:47;;;;;;;5.45;3.05;;;12.80;81.60;;;;;;4950231;28;20093;-71
2022/05/14 00:28:13;;;;;;;7.15;3.03;;;12.70;81.90;;;;;;4952610;28;20593;-71
2022/05/14 00:30:41;;;;;;;4.78;3.03;;;12.70;82.20;;;;;;4953446;28;20022;-71
2022/05/14 00:33:07;;;;;;;5.05;3.20;;;12.70;82.40;;;;;;4953055;28;20149;-71
2022/05/14 00:35:33;;;;;;;5.05;3.47;;;12.60;82.60;;;;;;4937334;28;20031;-72
2022/05/14 00:38:01;;;;;;;5.95;3.13;;;12.70;82.70;;;;;;4949532;28;20031;-70
2022/05/14 00:40:39;;;;;;;5.15;2.90;;;12.80;82.60;;;;;;4935876;28;20039;-71
2022/05/14 00:43:06;;;;;;;4.85;2.47;;;12.80;82.40;;;;;;4955792;28;20042;-71
2022/05/14 00:45:38;;;;;;;6.75;2.97;;;13.00;82.20;;;;;;4956526;28;20037;-71
2022/05/14 00:48:05;;;;;;;5.00;2.42;;;13.10;82.20;;;;;;4936916;28;20027;-71
2022/05/14 00:50:34;;;;;;;3.40;2.40;;;13.10;81.70;;;;;;4958626;28;20558;-71
2022/05/14 00:53:16;;;;;;;7.32;2.78;;;13.30;81.50;;;;;;4933335;28;20035;-71
2022/05/14 00:55:44;;;;;;;5.03;2.97;;;13.30;81.20;;;;;;4929489;28;20028;-71
2022/05/14 00:58:16;;;;;;;3.15;2.55;;;13.40;81.10;;;;;;4941157;28;20066;-71
2022/05/14 01:00:42;;;;;;;3.70;2.92;;;13.40;80.60;;;;;;4936092;28;20073;-71
2022/05/14 01:03:08;;;;;;;5.80;2.60;;;13.50;80.20;;;;;;4937413;28;20139;-71
2022/05/14 01:05:34;;;;;;;5.53;2.45;;;13.60;80.10;;;;;;4955337;28;20031;-70
2022/05/14 01:08:03;;;;;;;4.32;2.47;;;13.60;79.80;;;;;;4937619;28;20035;-71
2022/05/14 01:10:38;;;;;;;7.28;2.55;;;13.70;79.60;;;;;;4933411;28;20045;-71
2022/05/14 01:13:04;;;;;;;5.97;2.85;;;13.70;79.40;;;;;;4929012;28;20039;-69
2022/05/14 01:15:43;;;;;;;5.03;2.40;;;13.80;79.30;;;;;;4946311;28;20034;-71
2022/05/14 01:18:10;;;;;;;7.22;2.63;;;13.80;79.30;;;;;;4952856;28;20546;-71
2022/05/14 01:20:38;;;;;;;6.25;2.65;;;13.90;79.30;;;;;;4954526;28;20536;-71
2022/05/14 01:23:17;;;;;;;4.68;2.92;;;13.90;79.30;;;;;;4940258;28;20578;-71
2022/05/14 01:28:52;;;;;;;5.28;2.80;;;14.00;79.10;;;;;;4929908;28;20043;-71
2022/05/14 01:31:17;;;;;;;3.53;2.70;;;14.00;79.00;;;;;;4931425;28;20731;-71
2022/05/14 01:33:43;;;;;;;3.97;3.30;;;14.10;79.00;;;;;;4931757;28;20022;-71
2022/05/14 01:36:09;;;;;;;4.85;3.13;;;14.10;78.50;;;;;;4951244;28;20030;-71
2022/05/14 01:38:37;;;;;;;7.75;3.10;;;14.20;78.00;;;;;;4940969;28;20034;-71
2022/05/14 01:41:04;;;;;;;5.53;3.40;;;14.20;77.70;;;;;;4942970;28;20061;-71
2022/05/14 01:43:30;;;;;;;3.90;2.63;;;14.20;78.00;;;;;;4951920;28;20029;-71
2022/05/14 01:45:56;;;;;;;5.47;2.97;;;14.20;77.90;;;;;;4947292;28;20031;-71
2022/05/14 01:48:23;;;;;;;5.40;3.00;;;14.30;78.00;;;;;;4940388;28;20031;-71
2022/05/14 01:50:49;;;;;;;6.15;3.45;;;14.30;78.10;;;;;;4951476;28;20816;-71
2022/05/14 01:53:16;;;;;;;5.55;3.08;;;14.30;77.80;;;;;;4935692;28;20109;-71
2022/05/14 01:55:42;;;;;;;5.07;3.38;;;14.30;77.60;;;;;;4930127;28;20035;-71
2022/05/14 02:00:54;;;;;;;6.60;3.53;;;14.30;77.60;;;;;;4948259;28;20728;-71
2022/05/14 02:03:21;;;;;;;6.82;3.10;;;14.40;77.70;;;;;;4939711;28;20035;-71
2022/05/14 02:05:47;;;;;;;4.95;3.33;;;14.40;78.00;;;;;;4950526;28;20141;-71
2022/05/14 02:08:14;;;;;;;6.40;3.60;;;14.40;77.80;;;;;;4935126;28;20031;-71
2022/05/14 02:10:42;;;;;;;5.57;3.35;;;14.30;77.70;;;;;;4933659;28;20495;-71
2022/05/14 02:13:10;;;;;;;5.60;3.25;;;14.30;77.80;;;;;;4946498;28;20031;-71
2022/05/14 02:15:37;;;;;;;4.20;3.65;;;14.30;78.20;;;;;;4926249;29;20028;-71
2022/05/14 02:18:04;;;;;;;3.78;3.25;;;14.30;78.30;;;;;;4933501;28;20035;-71
2022/05/14 02:20:30;;;;;;;6.43;3.45;;;14.30;78.40;;;;;;4957260;28;20034;-71
2022/05/14 02:22:57;;;;;;;6.63;4.25;;;14.30;78.50;;;;;;4956551;28;20047;-71
2022/05/14 02:25:23;;;;;;;3.42;2.92;;;14.30;78.60;;;;;;4938827;28;20117;-71
2022/05/14 02:27:48;;;;;;;3.78;3.40;;;14.30;78.50;;;;;;4938414;28;20062;-70
2022/05/14 02:30:15;;;;;;;5.07;3.47;;;14.40;78.80;;;;;;4931857;28;20041;-71
2022/05/14 02:32:41;;;;;;;7.30;3.42;;;14.30;78.80;;;;;;4932434;28;20653;-70
2022/05/14 02:35:07;;;;;;;6.82;3.83;;;14.30;78.70;;;;;;4954962;28;20038;-71
2022/05/14 02:37:33;;;;;;;10.85;3.67;;;14.30;78.70;;;;;;4956463;28;20686;-71
2022/05/14 02:39:59;;;;;;;5.95;3.80;;;14.30;78.90;;;;;;4940206;28;20058;-70
2022/05/14 02:42:25;;;;;;;4.88;3.53;;;14.30;79.00;;;;;;4939843;28;20714;-71
2022/05/14 02:44:51;;;;;;;5.97;3.47;;;14.30;79.00;;;;;;4940012;28;20494;-71
2022/05/14 02:47:17;;;;;;;5.55;3.22;;;14.30;78.80;;;;;;4945167;28;20042;-71
2022/05/14 02:49:44;;;;;;;4.78;3.45;;;14.30;78.80;;;;;;4957685;28;20035;-71
2022/05/14 02:52:11;;;;;;;6.82;3.42;;;14.30;78.80;;;;;;4940372;28;20042;-71
2022/05/14 02:54:37;;;;;;;8.27;3.40;;;14.20;78.70;;;;;;4955080;28;20093;-71
2022/05/14 02:57:05;;;;;;;5.90;3.40;;;14.20;78.90;;;;;;4959066;28;20771;-71
2022/05/14 02:59:31;;;;;;;7.22;3.83;;;14.20;79.00;;;;;;4960795;28;20085;-71
2022/05/14 03:01:57;;;;;;;6.40;3.83;;;14.20;79.00;;;;;;4950625;28;20050;-71
2022/05/14 03:04:27;;;;;;;7.90;3.65;;;14.10;79.00;;;;;;4955972;28;20122;-71
2022/05/14 03:06:55;;;;;;;7.07;3.50;;;14.10;79.20;;;;;;4932442;28;20476;-71
2022/05/14 03:09:23;;;;;;;5.88;3.88;;;14.10;79.20;;;;;;4939138;28;20519;-71
2022/05/14 03:11:49;;;;;;;5.53;3.22;;;14.10;79.10;;;;;;4935743;28;20028;-71
2022/05/14 03:14:16;;;;;;;5.55;3.33;;;14.10;79.00;;;;;;4951001;28;20058;-71
2022/05/14 03:16:43;;;;;;;6.05;3.65;;;14.00;79.30;;;;;;4943009;28;20101;-69
2022/05/14 03:19:10;;;;;;;7.93;3.40;;;14.00;79.60;;;;;;4952025;28;20035;-71
2022/05/14 03:21:37;;;;;;;4.82;3.38;;;13.90;79.80;;;;;;4944916;28;20051;-71
2022/05/14 03:24:03;;;;;;;8.05;3.90;;;13.80;79.90;;;;;;4951186;28;20031;-71
2022/05/14 03:26:30;;;;;;;7.90;3.45;;;13.70;80.30;;;;;;4945300;28;20035;-71
2022/05/14 03:28:56;;;;;;;7.80;3.65;;;13.60;80.50;;;;;;4951354;28;20054;-71
2022/05/14 03:31:22;;;;;;;5.32;3.28;;;13.50;80.70;;;;;;4933831;28;20022;-71
2022/05/14 03:33:47;;;;;;;5.85;3.83;;;13.40;81.20;;;;;;4957013;28;20099;-71
2022/05/14 03:36:13;;;;;;;6.57;3.95;;;13.40;81.50;;;;;;4945879;28;20058;-71
2022/05/14 03:38:39;;;;;;;5.95;3.90;;;13.30;81.60;;;;;;4944444;28;20086;-71
2022/05/14 03:41:06;;;;;;;8.10;4.40;;;13.20;81.80;;;;;;4959224;28;20019;-71
2022/05/14 03:43:32;;;;;;;5.93;3.83;;;13.20;82.10;;;;;;4956938;28;20038;-71
2022/05/14 03:45:59;;;;;;;5.10;3.20;;;13.10;82.40;;;;;;4945347;28;20126;-71
2022/05/14 03:48:25;;;;;;;3.72;3.20;;;13.00;82.70;;;;;;4932845;28;20067;-71
2022/05/14 03:50:52;;;;;;;7.32;4.28;;;13.00;82.90;;;;;;4957153;28;20053;-71
2022/05/14 03:53:22;;;;;;;10.10;3.33;;;13.00;83.20;;;;;;4951589;28;20034;-71
2022/05/14 03:55:48;;;;;;;6.10;3.35;;;13.00;83.30;;;;;;4956823;28;20027;-71
2022/05/14 03:58:14;;;;;;;8.35;4.30;;;13.00;83.50;;;;;;4939179;28;20045;-71
2022/05/14 04:00:40;;;;;;;6.97;3.80;;;12.90;83.50;;;;;;4959148;28;20042;-72
2022/05/14 04:03:06;;;;;;;7.32;3.80;;;12.90;83.60;;;;;;4949401;28;20130;-71
2022/05/14 04:05:32;;;;;;;7.53;3.17;;;12.90;83.70;;;;;;4947375;28;20535;-71
2022/05/14 04:07:58;;;;;;;7.45;2.90;;;12.90;83.80;;;;;;4943963;28;20049;-71
2022/05/14 04:10:24;;;;;;;6.20;3.50;;;12.90;83.70;;;;;;4957963;28;20496;-71
2022/05/14 04:12:50;;;;;;;5.50;3.28;;;13.00;83.80;;;;;;4938752;28;20047;-71
2022/05/14 04:15:19;;;;;;;5.97;3.63;;;13.00;83.70;;;;;;4942621;28;20027;-70
2022/05/14 04:17:45;;;;;;;4.88;3.38;;;13.00;83.60;;;;;;4942182;28;20108;-70
2022/05/14 04:20:11;;;;;;;7.75;3.03;;;13.00;83.60;;;;;;4944416;28;20746;-70
2022/05/14 04:22:37;;;;;;;7.78;3.10;;;13.10;83.70;;;;;;4942616;28;20027;-70
2022/05/14 04:25:04;;;;;;;10.55;3.40;;;13.00;83.60;;;;;;4952652;28;20712;-70
2022/05/14 04:27:30;;;;;;;4.35;3.30;;;13.10;83.80;;;;;;4952010;28;20042;-70
2022/05/14 04:29:56;;;;;;;7.88;3.53;;;13.10;83.90;;;;;;4940929;28;20042;-70
2022/05/14 04:32:22;;;;;;;5.63;3.30;;;13.10;83.80;;;;;;4943311;28;20842;-71
2022/05/14 04:34:48;;;;;;;12.30;4.15;;;13.10;84.30;;;;;;4938505;28;20085;-70
2022/05/14 04:37:14;;;;;;;9.70;3.10;;;13.20;83.40;;;;;;4945347;28;20049;-70
2022/05/14 04:39:40;;;;;;;7.15;3.25;;;13.20;83.40;;;;;;4934053;28;20562;-70
2022/05/14 04:42:09;;;;;;;5.03;3.40;;;13.20;83.50;;;;;;4937817;28;20563;-70
2022/05/14 04:44:37;;;;;;;6.65;3.30;;;13.30;83.50;;;;;;4944196;28;20035;-70
2022/05/14 04:47:04;;;;;;;10.07;3.88;;;13.40;83.60;;;;;;4953939;28;20034;-70
2022/05/14 04:49:30;;;;;;;7.97;3.13;;;13.40;82.40;;;;;;4958392;28;20050;-70
2022/05/14 04:51:57;;;;;;;8.85;3.10;;;13.50;82.40;;;;;;4940732;29;20114;-70
2022/05/14 04:54:24;;;;;;;6.22;3.05;;;13.60;82.30;;;;;;4936281;28;20057;-70
2022/05/14 04:56:50;;;;;;;7.32;3.10;;;13.70;82.10;;;;;;4936949;28;20027;-70
2022/05/14 04:59:16;;;;;;;10.25;2.92;;;13.70;81.80;;;;;;4939102;28;20034;-70
2022/05/14 05:03:16;;;;;;;7.10;3.58;;;13.80;81.70;;;;;;4938066;28;20035;-70
2022/05/14 05:04:31;;;;;;;8.95;3.53;;;13.90;81.40;;;;;;4932259;28;20038;-70
2022/05/14 05:06:57;;;;;;;6.30;2.70;;;14.10;81.10;;;;;;4927055;28;20035;-70
2022/05/14 05:09:23;;;;;;;10.98;3.53;;;14.10;80.60;;;;;;4943814;28;20511;-69
2022/05/14 05:11:50;;;;;;;6.35;3.10;;;14.30;79.80;;;;;;4951991;28;20767;-70
2022/05/14 05:14:16;;;;;;;10.05;3.03;;;14.40;79.80;;;;;;4953674;28;20117;-70
2022/05/14 05:16:42;;;;;;;4.15;2.55;;;14.90;78.50;;;;;;4956760;28;20034;-70
2022/05/14 05:19:08;;;;;;;7.10;3.05;;;15.60;74.60;;;;;;4949992;28;20487;-70
2022/05/14 05:21:34;;;;;;;5.22;2.58;;;16.20;73.20;;;;;;4948602;28;20054;-70
2022/05/14 05:24:01;;;;;;;7.60;2.70;;;16.40;70.90;;;;;;4951835;28;20901;-70
2022/05/14 05:26:27;;;;;;;8.32;3.25;;;16.60;72.00;;;;;;4957104;28;20039;-69
2022/05/14 05:28:53;;;;;;;6.38;2.45;;;16.70;68.50;;;;;;4939863;28;20042;-70
2022/05/14 05:31:19;;;;;;;6.45;2.83;;;17.20;68.80;;;;;;4955910;28;20383;-70
2022/05/14 05:33:45;;;;;;;5.68;2.72;;;17.50;67.00;;;;;;4957596;28;20834;-70
2022/05/14 05:36:10;;;;;;;8.02;2.90;;;17.50;68.00;;;;;;4952594;28;20026;-69
2022/05/14 05:38:37;;;;;;;6.03;2.40;;;17.50;67.00;;;;;;4952443;28;20384;-69
2022/05/14 05:41:03;;;;;;;4.82;2.47;;;17.50;65.80;;;;;;4946014;28;20034;-70
2022/05/14 05:43:30;;;;;;;11.80;2.72;;;17.80;65.30;;;;;;4958241;28;20038;-70
2022/05/14 05:45:56;;;;;;;10.25;2.88;;;17.90;64.50;;;;;;4958295;28;20035;-70
2022/05/14 05:48:23;;;;;;;6.50;2.72;;;18.10;64.00;;;;;;4958908;28;20562;-69
2022/05/14 05:50:49;;;;;;;6.07;2.92;;;18.10;63.90;;;;;;4958668;28;20535;-70
2022/05/14 05:53:17;;;;;;;6.38;2.97;;;18.10;64.20;;;;;;4957914;28;20043;-70
2022/05/14 05:58:28;;;;;;;10.23;3.55;;;18.10;64.70;;;;;;4949793;28;20031;-70
2022/05/14 06:00:54;;;;;;;6.95;2.72;;;18.20;64.20;;;;;;4956221;28;20031;-70
2022/05/14 06:03:20;;;;;;;9.52;2.80;;;18.10;63.50;;;;;;4953688;28;20050;-69
2022/05/14 06:05:46;;;;;;;7.82;2.97;;;18.10;63.80;;;;;;4956114;28;20035;-70
2022/05/14 06:08:15;;;;;;;10.07;2.78;;;18.20;64.40;;;;;;4953849;28;20058;-69
2022/05/14 06:10:41;;;;;;;10.30;3.08;;;18.60;62.30;;;;;;4952190;28;20083;-70
2022/05/14 06:13:09;;;;;;;7.45;2.83;;;18.90;61.90;;;;;;4933366;28;20032;-69
2022/05/14 06:15:36;;;;;;;7.10;2.92;;;18.90;61.50;;;;;;4936900;28;20023;-70
2022/05/14 06:18:03;;;;;;;6.97;2.47;;;18.80;61.60;;;;;;4955613;28;20089;-69
2022/05/14 06:20:29;;;;;;;8.68;3.00;;;18.60;62.10;;;;;;4956987;28;20073;-70
2022/05/14 06:22:55;;;;;;;9.93;2.95;;;18.40;62.80;;;;;;4946104;28;20837;-69
2022/05/14 06:25:21;;;;;;;13.20;3.58;;;18.30;63.80;;;;;;4960192;28;20027;-69
2022/05/14 06:27:47;;;;;;;10.05;3.10;;;18.50;63.30;;;;;;4957418;28;20237;-70
2022/05/14 06:30:13;;;;;;;11.88;3.60;;;18.60;62.30;;;;;;4953879;28;20066;-69
2022/05/14 06:32:38;;;;;;;7.63;2.53;;;18.80;62.20;;;;;;4959468;28;20038;-70
2022/05/14 06:35:09;;;;;;;10.23;3.60;;;19.10;61.80;;;;;;4957979;28;20042;-70
2022/05/14 06:37:35;;;;;;;7.80;2.63;;;19.20;60.90;;;;;;4953089;28;20101;-70
2022/05/14 06:40:01;;;;;;;9.65;2.40;;;19.40;61.40;;;;;;4952214;28;20835;-70
2022/05/14 06:42:27;;;;;;;5.68;2.75;;;19.40;60.10;;;;;;4955778;28;20820;-69
2022/05/14 06:44:55;;;;;;;5.22;2.10;;;19.30;60.30;;;;;;4960070;28;20030;-70
2022/05/14 06:47:21;;;;;;;8.52;2.97;;;19.20;60.10;;;;;;4961963;28;20035;-71
2022/05/14 06:49:47;;;;;;;10.23;3.08;;;19.30;60.00;;;;;;4955931;28;20086;-71
2022/05/14 06:52:16;;;;;;;7.70;2.67;;;19.50;59.10;;;;;;4956256;28;20529;-70
2022/05/14 06:54:45;;;;;;;13.57;3.22;;;19.60;59.00;;;;;;4957055;28;20034;-68
2022/05/14 06:57:12;;;;;;;7.45;2.78;;;19.60;59.40;;;;;;4956825;28;20039;-69
2022/05/14 06:59:38;;;;;;;8.73;2.30;;;19.80;58.90;;;;;;4947722;28;20502;-69
2022/05/14 07:02:05;;;;;;;16.50;3.70;;;19.80;59.30;;;;;;4953294;28;20046;-69
2022/05/14 07:07:17;;;;;;;8.15;2.63;;;19.60;59.70;;;;;;4941254;28;20054;-69
2022/05/14 07:09:43;;;;;;;9.50;3.60;;;19.70;59.40;;;;;;4957873;28;20027;-70
2022/05/14 07:12:09;;;;;;;11.73;3.17;;;19.90;58.80;;;;;;4957272;28;20479;-70
2022/05/14 07:14:40;;;;;;;7.07;2.95;;;20.00;57.80;;;;;;4950811;28;21045;-69
2022/05/14 07:17:08;;;;;;;6.28;2.67;;;20.00;57.80;;;;;;4953158;28;20078;-71
2022/05/14 07:19:35;;;;;;;8.23;2.72;;;20.20;57.40;;;;;;4942821;28;20037;-71
2022/05/14 07:22:01;;;;;;;9.77;3.40;;;20.50;57.40;;;;;;4958371;28;20031;-68
2022/05/14 07:24:29;;;;;;;10.02;2.92;;;20.90;56.60;;;;;;4954548;28;20142;-69
2022/05/14 07:26:57;;;;;;;12.82;3.28;;;21.30;55.80;;;;;;4938774;28;20792;-70
2022/05/14 07:29:24;;;;;;;10.18;2.55;;;21.70;54.60;;;;;;4955753;28;20363;-69
2022/05/14 07:31:52;;;;;;;6.68;2.65;;;21.70;54.10;;;;;;4956105;28;20036;-69
2022/05/14 07:34:18;;;;;;;8.43;3.10;;;21.80;54.20;;;;;;4953110;28;20030;-69
2022/05/14 07:36:53;;;;;;;12.43;3.53;;;21.40;53.90;;;;;;4956319;28;20023;-68
2022/05/14 07:39:21;;;;;;;8.85;2.60;;;21.20;54.80;;;;;;4952317;28;20041;-67
2022/05/14 07:41:51;;;;;;;14.18;3.08;;;21.10;55.60;;;;;;4957994;28;20053;-69
2022/05/14 07:44:19;;;;;;;8.70;2.90;;;21.30;55.50;;;;;;4956703;28;20240;-69
2022/05/14 07:46:47;;;;;;;13.52;3.00;;;21.90;54.60;;;;;;4949726;28;20689;-67
2022/05/14 07:49:14;;;;;;;4.68;2.42;;;22.40;53.50;;;;;;4954054;28;20038;-63
2022/05/14 07:51:41;;;;;;;10.88;2.75;;;22.80;53.30;;;;;;4958296;28;20500;-69
2022/05/14 07:54:07;;;;;;;8.90;4.30;;;22.90;51.00;;;;;;4945331;28;20544;-69
2022/05/14 07:56:33;;;;;;;11.02;3.20;;;23.00;51.50;;;;;;4950293;28;20027;-69
2022/05/14 07:58:59;;;;;;;7.05;2.75;;;23.10;49.70;;;;;;4961668;28;20035;-69
2022/05/14 08:01:25;;;;;;;8.27;2.88;;;23.20;50.60;;;;;;4939549;28;20035;-68
2022/05/14 08:03:51;;;;;;;10.93;2.67;;;23.20;50.80;;;;;;4954320;28;20042;-67
2022/05/14 08:06:19;;;;;;;11.52;2.47;;;23.20;50.60;;;;;;4951631;28;20042;-69
2022/05/14 08:08:46;;;;;;;7.13;2.50;;;23.10;50.00;;;;;;4956135;28;20062;-70
2022/05/14 08:11:12;;;;;;;8.95;2.55;;;23.10;50.30;;;;;;4956382;28;20046;-70
2022/05/14 08:13:38;;;;;;;12.25;2.97;;;23.10;50.20;;;;;;4948641;28;20041;-71
2022/05/14 08:16:04;;;;;;;7.22;2.70;;;23.10;50.40;;;;;;4955726;28;20045;-70
2022/05/14 08:18:32;;;;;;;10.98;2.53;;;23.00;49.80;;;;;;4953539;28;20047;-70
2022/05/14 08:24:29;;;;;;;10.57;2.85;;;22.90;50.50;;;;;;4953073;28;20035;-69
2022/05/14 08:26:28;;;;;;;9.82;2.83;;;23.10;49.40;;;;;;4954553;28;20191;-71
2022/05/14 08:28:54;;;;;;;8.02;2.10;;;23.20;49.50;;;;;;4953239;28;20121;-69
2022/05/14 08:31:20;;;;;;;6.15;2.42;;;23.50;49.90;;;;;;4947844;28;20031;-70
2022/05/14 08:33:45;;;;;;;6.32;2.17;;;23.50;49.50;;;;;;4947853;28;20114;-69
2022/05/14 08:36:11;;;;;;;9.50;2.17;;;23.60;48.70;;;;;;4955737;28;20035;-69
2022/05/14 08:38:37;;;;;;;8.15;2.78;;;23.80;48.60;;;;;;4937745;28;20539;-70
2022/05/14 08:41:04;;;;;;;6.88;2.67;;;24.00;48.00;;;;;;4955712;28;20061;-68
2022/05/14 08:43:42;;;;;;;6.88;2.33;;;23.90;47.50;;;;;;4955882;28;20074;-69
2022/05/14 08:46:13;;;;;;;7.85;2.25;;;23.90;47.20;;;;;;4949981;28;20553;-68
2022/05/14 08:48:39;;;;;;;6.13;2.13;;;23.90;47.50;;;;;;4954988;28;20043;-68
2022/05/14 08:51:16;;;;;;;9.85;2.25;;;23.90;47.60;;;;;;4959165;28;20042;-69
2022/05/14 08:53:44;;;;;;;4.88;2.03;;;23.70;47.50;;;;;;4953221;28;20785;-69
2022/05/14 08:56:33;;;;;;;8.15;2.33;;;23.80;46.80;;;;;;4956475;28;20668;-69
2022/05/14 08:59:22;;;;;;;10.32;2.55;;;23.80;47.30;;;;;;4947194;28;20046;-69
2022/05/14 09:01:49;;;;;;;8.88;1.83;;;23.90;47.90;;;;;;4949584;28;20027;-68
2022/05/14 09:04:22;;;;;;;9.55;2.20;;;23.90;47.00;;;;;;5104523;27;20412;-69
2022/05/14 09:06:50;;;;;;;9.73;2.20;;;23.80;46.80;;;;;;5103521;28;20039;-69
2022/05/14 09:09:17;;;;;;;8.02;2.28;;;23.40;47.60;;;;;;5104970;28;20031;-69
2022/05/14 09:11:57;;;;;;;4.30;1.80;;;23.30;48.30;;;;;;5088950;28;20780;-69
2022/05/14 09:14:35;;;;;;;6.28;2.05;;;23.30;48.20;;;;;;5086641;28;20093;-68
2022/05/14 09:17:06;;;;;;;5.93;1.98;;;23.40;48.10;;;;;;5104939;28;20539;-69
2022/05/14 09:19:40;;;;;;;12.20;2.50;;;23.50;47.60;;;;;;5099912;28;20071;-70
2022/05/14 09:22:35;;;;;;;6.85;2.10;;;23.60;47.60;;;;;;5083449;28;20020;-69
2022/05/14 09:25:24;;;;;;;8.40;2.17;;;23.60;47.60;;;;;;5084379;28;20142;-71
2022/05/14 09:28:12;;;;;;;6.78;2.13;;;23.60;47.30;;;;;;5091258;28;20112;-70
2022/05/14 09:30:40;;;;;;;9.88;2.60;;;23.40;47.40;;;;;;5088494;28;20023;-71
2022/05/14 09:33:37;;;;;;;7.47;2.38;;;23.00;48.50;;;;;;5107876;28;20434;-71
2022/05/14 09:36:04;;;;;;;12.52;2.67;;;22.80;48.70;;;;;;5088577;28;20126;-72
2022/05/14 09:38:31;;;;;;;6.78;2.25;;;22.60;49.00;;;;;;5085879;28;20031;-71
2022/05/14 09:41:18;;;;;;;12.43;2.30;;;22.80;49.90;;;;;;5082653;28;20036;-70
2022/05/14 09:43:45;;;;;;;12.43;2.90;;;23.10;50.10;;;;;;5091307;28;20058;-71
2022/05/14 09:46:32;;;;;;;6.10;2.60;;;23.40;47.60;;;;;;5081817;28;20079;-71
2022/05/14 09:49:04;;;;;;;9.77;2.30;;;23.30;48.10;;;;;;5081686;28;20743;-70
2022/05/14 09:51:37;;;;;;;9.73;2.17;;;23.60;46.40;;;;;;5083376;28;20523;-70
2022/05/14 09:54:25;;;;;;;9.13;2.03;;;23.80;45.90;;;;;;5082835;28;20039;-70
2022/05/14 09:57:18;;;;;;;8.48;2.30;;;23.90;44.60;;;;;;5086999;28;20056;-70
2022/05/14 09:59:56;;;;;;;5.95;1.90;;;24.10;45.40;;;;;;5087575;28;20032;-70
2022/05/14 10:02:44;;;;;;;12.38;2.22;;;24.10;45.10;;;;;;5104289;28;20803;-70
2022/05/14 10:05:45;;;;;;;11.88;2.80;;;24.00;44.00;;;;;;5081715;28;20501;-70
2022/05/14 10:08:36;;;;;;;8.82;2.28;;;23.90;44.20;;;;;;5073169;28;20044;-70
2022/05/14 10:11:02;;;;;;;8.85;2.33;;;23.70;44.40;;;;;;5082442;28;20043;-70
2022/05/14 10:13:44;;;;;;;8.77;2.28;;;23.60;44.50;;;;;;5086469;28;20032;-70
2022/05/14 10:16:34;;;;;;;10.43;2.42;;;23.60;45.00;;;;;;5076398;28;20070;-70
2022/05/14 10:19:03;;;;;;;10.38;2.13;;;23.50;44.30;;;;;;5074886;28;20032;-70
2022/05/14 10:21:42;;;;;;;7.50;2.08;;;23.80;44.00;;;;;;5071634;28;20044;-71
2022/05/14 10:27:57;;;;;;;6.68;1.92;;;24.30;43.00;;;;;;5075268;28;20105;-69
2022/05/14 10:30:28;;;;;;;13.18;2.22;;;24.90;41.60;;;;;;5072124;28;20093;-70
2022/05/14 10:33:09;;;;;;;7.57;1.92;;;25.30;41.30;;;;;;5074165;28;20136;-70
2022/05/14 10:35:52;;;;;;;10.95;2.05;;;25.30;40.00;;;;;;5068790;28;20145;-71
2022/05/14 10:38:40;;;;;;;7.40;2.03;;;25.10;41.30;;;;;;5073764;28;20032;-70
2022/05/14 10:41:08;;;;;;;9.35;2.00;;;24.80;41.60;;;;;;5063840;28;20459;-71
2022/05/14 10:43:54;;;;;;;11.52;2.53;;;24.80;43.10;;;;;;5072967;28;20032;-70
2022/05/14 10:46:22;;;;;;;5.05;1.60;;;24.90;41.30;;;;;;5071918;28;20425;-69
2022/05/14 10:49:34;;;;;;;7.90;1.73;;;24.80;41.60;;;;;;5074120;28;20054;-68
2022/05/14 10:52:00;;;;;;;12.25;2.50;;;24.90;41.90;;;;;;5072454;28;20693;-69
2022/05/14 10:54:27;;;;;;;8.20;2.50;;;25.00;41.50;;;;;;5064368;28;20142;-69
2022/05/14 10:57:21;;;;;;;12.02;3.03;;;24.90;41.80;;;;;;5065083;28;20032;-69
2022/05/14 11:00:11;;;;;;;6.97;1.90;;;24.80;42.10;;;;;;5070695;28;20492;-69
2022/05/14 11:02:57;;;;;;;12.98;2.30;;;24.80;42.30;;;;;;5069766;28;20039;-69
2022/05/14 11:05:33;;;;;;;6.75;1.90;;;24.90;41.90;;;;;;5068629;28;20044;-68
2022/05/14 11:08:14;;;;;;;8.93;2.20;;;25.00;42.00;;;;;;5077893;28;20475;-69
2022/05/14 11:10:40;;;;;;;8.45;2.53;;;25.10;42.20;;;;;;5065619;28;20039;-68
2022/05/14 11:13:11;;;;;;;6.20;2.10;;;25.30;42.40;;;;;;5065405;28;20036;-69
2022/05/14 11:15:37;;;;;;;7.78;2.10;;;25.20;40.80;;;;;;5071674;28;20412;-69
2022/05/14 11:18:04;;;;;;;8.98;2.33;;;25.00;41.50;;;;;;5071991;28;20028;-68
2022/05/14 11:20:29;;;;;;;10.38;2.17;;;24.90;41.40;;;;;;5070973;28;20472;-69
2022/05/14 11:23:13;;;;;;;6.97;2.30;;;24.90;42.60;;;;;;5068778;28;20019;-70
2022/05/14 11:25:39;;;;;;;11.32;2.20;;;24.70;42.60;;;;;;5074498;28;20501;-68
2022/05/14 11:28:07;;;;;;;9.48;2.30;;;24.40;43.70;;;;;;5069041;28;20023;-69
2022/05/14 11:30:47;;;;;;;10.70;2.03;;;24.40;44.00;;;;;;5072145;28;20089;-70
2022/05/14 11:33:31;;;;;;;10.38;2.40;;;24.60;43.30;;;;;;5070934;28;20650;-69
2022/05/14 11:36:12;;;;;;;7.85;2.08;;;24.60;44.00;;;;;;5070253;28;20052;-70
2022/05/14 11:38:43;;;;;;;7.72;1.73;;;24.50;44.40;;;;;;5064096;28;20028;-69
2022/05/14 11:41:13;;;;;;;8.55;2.13;;;24.40;44.30;;;;;;5063095;28;20028;-68
2022/05/14 11:43:48;;;;;;;10.30;2.33;;;24.40;43.90;;;;;;5071896;28;20475;-70
2022/05/14 11:46:20;;;;;;;4.90;1.85;;;24.50;43.80;;;;;;5072377;28;20797;-70
2022/05/14 11:48:52;;;;;;;5.75;1.85;;;24.50;43.60;;;;;;5071729;28;20085;-70
2022/05/14 11:52:10;;;;;;;6.80;2.13;;;24.80;43.10;;;;;;5074354;28;20120;-69
2022/05/14 11:55:06;;;;;;;8.38;1.80;;;25.20;43.30;;;;;;5064174;28;20046;-70
2022/05/14 11:57:44;;;;;;;8.85;2.42;;;25.30;42.10;;;;;;5062844;28;20034;-70
2022/05/14 12:00:16;;;;;;;10.80;2.45;;;25.00;42.10;;;;;;5068708;28;20119;-70
2022/05/14 12:03:02;;;;;;;15.93;2.13;;;24.80;43.10;;;;;;5084441;28;20042;-70
2022/05/14 12:05:36;;;;;;;6.13;2.22;;;24.90;43.30;;;;;;5070933;28;20035;-70
2022/05/14 12:08:17;;;;;;;6.78;2.13;;;24.90;43.10;;;;;;5073450;28;20130;-71
2022/05/14 12:11:07;;;;;;;7.85;2.47;;;24.70;43.50;;;;;;5068349;28;20032;-71
2022/05/14 12:13:44;;;;;;;5.18;1.98;;;24.70;43.40;;;;;;5074019;28;20131;-71
2022/05/14 12:16:11;;;;;;;7.88;2.28;;;24.90;44.20;;;;;;5072410;28;20045;-71
2022/05/14 12:18:41;;;;;;;5.50;2.05;;;25.30;42.80;;;;;;5075103;28;20024;-71
2022/05/14 12:21:08;;;;;;;10.20;2.53;;;25.50;42.20;;;;;;5073752;28;20032;-70
2022/05/14 12:23:39;;;;;;;11.48;2.50;;;25.40;41.80;;;;;;5075605;28;20576;-71
2022/05/14 12:26:28;;;;;;;5.47;1.90;;;24.90;42.30;;;;;;5076693;28;20028;-71
2022/05/14 12:28:56;;;;;;;9.07;2.00;;;24.50;43.70;;;;;;5068299;28;20032;-67
2022/05/14 12:34:17;;;;;;;9.15;2.58;;;24.30;43.20;;;;;;5075017;28;20032;-70
2022/05/14 12:36:52;;;;;;;8.65;2.03;;;24.80;43.90;;;;;;5071902;28;20138;-70
2022/05/14 12:39:27;;;;;;;10.48;2.63;;;25.10;42.80;;;;;;5068184;28;20061;-70
2022/05/14 12:42:08;;;;;;;12.07;4.80;;;25.10;42.50;;;;;;5076883;28;20127;-70
2022/05/14 12:44:41;;;;;;;9.13;3.28;;;25.00;42.50;;;;;;5064359;28;20839;-70
2022/05/14 12:47:08;;;;;;;11.05;2.65;;;24.70;42.10;;;;;;5070824;28;20400;-70
2022/05/14 12:49:44;;;;;;;12.90;2.60;;;24.70;42.70;;;;;;5069749;28;20028;-70
2022/05/14 12:52:16;;;;;;;7.93;2.55;;;24.50;43.00;;;;;;5070005;28;20674;-69
2022/05/14 12:54:58;;;;;;;10.73;2.95;;;24.20;43.00;;;;;;5067541;28;20050;-70
2022/05/14 12:57:25;;;;;;;12.23;3.17;;;24.10;43.90;;;;;;5072304;28;20194;-70
2022/05/14 12:59:52;;;;;;;9.77;2.97;;;24.30;43.20;;;;;;5067458;28;20090;-70
2022/05/14 13:02:36;;;;;;;8.82;2.58;;;24.40;42.60;;;;;;5069054;28;20232;-70
2022/05/14 13:05:29;;;;;;;9.45;2.40;;;24.20;43.20;;;;;;5066629;28;20037;-70
2022/05/14 13:08:02;;;;;;;8.50;2.83;;;23.80;43.70;;;;;;5074193;28;20052;-70
2022/05/14 13:10:30;;;;;;;9.18;3.30;;;23.70;43.20;;;;;;5072672;28;20136;-70
2022/05/14 13:13:02;;;;;;;10.65;3.38;;;23.90;43.50;;;;;;5063802;28;20381;-69
2022/05/14 13:15:37;;;;;;;13.75;3.13;;;24.20;42.30;;;;;;5070032;28;20036;-70
2022/05/14 13:18:24;;;;;;;7.40;2.28;;;24.20;42.60;;;;;;5070319;28;20767;-70
2022/05/14 13:21:06;;;;;;;8.32;2.60;;;24.10;42.20;;;;;;5070380;28;20032;-70
2022/05/14 13:23:34;;;;;;;7.97;2.35;;;24.00;42.80;;;;;;5068611;28;20779;-70
2022/05/14 13:26:05;;;;;;;8.57;2.35;;;24.00;42.10;;;;;;5070344;28;20021;-70